createdAt,value
2022-10-30T00:00:47.351Z,18.24
2022-10-30T00:01:47.359Z,18.18
2022-10-30T00:02:47.398Z,18.09
2022-10-30T00:03:47.249Z,18.09
2022-10-30T00:04:47.161Z,18.08
2022-10-30T00:05:47.180Z,18.12
2022-10-30T00:06:47.078Z,18.02
2022-10-30T00:07:47.031Z,18.09
2022-10-30T00:08:46.991Z,18.06
2022-10-30T00:09:46.946Z,18.06
2022-10-30T00:10:46.923Z,18.05
2022-10-30T00:11:46.857Z,18.03
2022-10-30T00:12:46.816Z,18.08
2022-10-30T00:13:46.769Z,17.94
2022-10-30T00:14:46.727Z,17.98
2022-10-30T00:15:46.685Z,18.02
2022-10-30T00:16:46.725Z,17.97
2022-10-30T00:17:46.597Z,17.98
2022-10-30T00:18:46.556Z,17.94
2022-10-30T00:19:46.594Z,17.94
2022-10-30T00:20:46.517Z,17.97
2022-10-30T00:21:46.424Z,17.94
2022-10-30T00:22:46.494Z,17.93
2022-10-30T00:23:46.428Z,17.93
2022-10-30T00:24:46.293Z,17.93
2022-10-30T00:25:46.341Z,17.88
2022-10-30T00:26:46.247Z,17.90
2022-10-30T00:27:46.261Z,17.93
2022-10-30T00:28:46.170Z,17.91
2022-10-30T00:29:46.122Z,17.95
2022-10-30T00:30:46.031Z,17.91
2022-10-30T00:31:45.989Z,17.94
2022-10-30T00:32:45.960Z,17.97
2022-10-30T00:33:45.942Z,17.94
2022-10-30T00:34:45.858Z,17.94
2022-10-30T00:36:45.770Z,17.94
2022-10-30T00:37:45.724Z,18.00
2022-10-30T00:38:45.681Z,17.93
2022-10-30T00:39:45.682Z,17.91
2022-10-30T00:40:45.594Z,17.88
2022-10-30T00:41:45.573Z,17.90
2022-10-30T00:43:45.493Z,17.91
2022-10-30T00:44:45.422Z,17.90
2022-10-30T00:45:45.380Z,17.93
2022-10-30T00:46:45.332Z,17.93
2022-10-30T00:47:45.300Z,17.93
2022-10-30T00:48:45.251Z,17.91
2022-10-30T00:49:45.235Z,17.90
2022-10-30T00:50:45.162Z,17.90
2022-10-30T00:51:45.120Z,17.91
2022-10-30T00:52:45.081Z,17.88
2022-10-30T00:53:45.030Z,17.88
2022-10-30T00:54:44.988Z,17.90
2022-10-30T00:55:45.031Z,17.98
2022-10-30T00:56:44.967Z,17.95
2022-10-30T00:57:44.983Z,17.88
2022-10-30T00:58:44.812Z,17.90
2022-10-30T00:59:44.786Z,17.87
2022-10-30T01:00:44.807Z,17.87
2022-10-30T01:01:44.965Z,17.82
2022-10-30T01:02:44.692Z,17.79
2022-10-30T01:03:44.596Z,17.84
2022-10-30T01:04:44.549Z,17.86
2022-10-30T01:05:44.506Z,17.82
2022-10-30T01:06:44.462Z,17.76
2022-10-30T01:07:44.418Z,17.80
2022-10-30T01:08:44.451Z,17.75
2022-10-30T01:09:44.331Z,17.73
2022-10-30T01:10:44.286Z,17.79
2022-10-30T01:11:44.245Z,17.68
2022-10-30T01:12:44.201Z,17.75
2022-10-30T01:13:44.158Z,17.73
2022-10-30T01:14:44.315Z,17.71
2022-10-30T01:15:44.088Z,17.71
2022-10-30T01:16:44.025Z,17.57
2022-10-30T01:17:43.983Z,17.59
2022-10-30T01:18:43.940Z,17.56
2022-10-30T01:19:43.897Z,17.57
2022-10-30T01:20:43.853Z,17.54
2022-10-30T01:21:43.807Z,17.59
2022-10-30T01:22:43.762Z,17.60
2022-10-30T01:23:43.722Z,17.50
2022-10-30T01:24:43.677Z,17.49
2022-10-30T01:25:43.638Z,17.54
2022-10-30T01:26:43.630Z,17.50
2022-10-30T01:27:43.548Z,17.47
2022-10-30T01:28:43.500Z,17.54
2022-10-30T01:29:43.458Z,17.49
2022-10-30T01:30:43.413Z,17.44
2022-10-30T01:31:43.387Z,17.42
2022-10-30T01:32:43.403Z,17.39
2022-10-30T01:33:43.285Z,17.41
2022-10-30T01:35:43.196Z,17.35
2022-10-30T01:36:43.199Z,17.38
2022-10-30T01:37:43.146Z,17.31
2022-10-30T01:38:43.076Z,17.34
2022-10-30T01:39:43.089Z,17.37
2022-10-30T01:40:42.975Z,17.28
2022-10-30T01:41:42.969Z,17.28
2022-10-30T01:42:42.890Z,17.32
2022-10-30T01:43:42.877Z,17.24
2022-10-30T01:44:42.799Z,17.17
2022-10-30T01:45:42.755Z,17.13
2022-10-30T01:46:42.772Z,17.14
2022-10-30T01:47:42.688Z,17.14
2022-10-30T01:48:42.840Z,17.10
2022-10-30T01:49:42.583Z,17.07
2022-10-30T01:50:42.539Z,17.09
2022-10-30T01:51:42.527Z,17.12
2022-10-30T01:52:42.449Z,17.02
2022-10-30T01:53:42.503Z,16.92
2022-10-30T01:54:42.358Z,16.98
2022-10-30T01:55:42.316Z,16.99
2022-10-30T01:56:42.327Z,17.02
2022-10-30T01:57:42.293Z,16.87
2022-10-30T01:58:42.235Z,17.01
2022-10-30T01:59:42.139Z,17.02
2022-10-30T02:00:42.095Z,16.86
2022-10-30T02:01:42.181Z,16.83
2022-10-30T02:02:42.132Z,16.91
2022-10-30T02:03:41.983Z,16.82
2022-10-30T02:04:41.920Z,16.84
2022-10-30T02:05:41.877Z,16.79
2022-10-30T02:06:42.037Z,16.69
2022-10-30T02:07:41.789Z,16.68
2022-10-30T02:08:41.742Z,16.69
2022-10-30T02:09:41.708Z,16.76
2022-10-30T02:10:41.656Z,16.72
2022-10-30T02:11:41.613Z,16.68
2022-10-30T02:12:41.624Z,16.64
2022-10-30T02:13:41.521Z,16.68
2022-10-30T02:14:41.477Z,16.59
2022-10-30T02:15:41.537Z,16.64
2022-10-30T02:16:41.712Z,16.54
2022-10-30T02:17:41.385Z,16.59
2022-10-30T02:18:41.350Z,16.54
2022-10-30T02:19:41.341Z,16.51
2022-10-30T02:20:41.220Z,16.58
2022-10-30T02:21:41.169Z,16.49
2022-10-30T02:22:41.238Z,16.51
2022-10-30T02:23:41.079Z,16.46
2022-10-30T02:24:41.035Z,16.37
2022-10-30T02:25:40.991Z,16.47
2022-10-30T02:26:40.947Z,16.41
2022-10-30T02:27:40.902Z,16.36
2022-10-30T02:28:40.954Z,16.34
2022-10-30T02:29:40.837Z,16.36
2022-10-30T02:30:40.807Z,16.31
2022-10-30T02:31:40.742Z,16.21
2022-10-30T02:32:40.710Z,16.25
2022-10-30T02:33:40.635Z,16.26
2022-10-30T02:34:40.592Z,16.21
2022-10-30T02:35:40.572Z,16.24
2022-10-30T02:36:40.605Z,16.12
2022-10-30T02:37:40.503Z,16.13
2022-10-30T02:38:40.413Z,16.24
2022-10-30T02:39:40.370Z,16.28
2022-10-30T02:40:40.324Z,16.22
2022-10-30T02:41:40.286Z,16.18
2022-10-30T02:42:40.316Z,16.18
2022-10-30T02:43:40.193Z,16.16
2022-10-30T02:44:40.146Z,16.09
2022-10-30T02:45:40.135Z,16.12
2022-10-30T02:46:40.128Z,16.05
2022-10-30T02:47:40.069Z,15.99
2022-10-30T02:49:39.926Z,15.99
2022-10-30T02:50:39.883Z,15.99
2022-10-30T02:51:39.948Z,15.91
2022-10-30T02:52:39.883Z,15.94
2022-10-30T02:53:39.746Z,15.94
2022-10-30T02:54:40.388Z,15.90
2022-10-30T02:55:39.657Z,15.92
2022-10-30T02:56:39.649Z,15.84
2022-10-30T02:57:39.684Z,15.88
2022-10-30T02:58:39.523Z,15.81
2022-10-30T02:59:39.489Z,15.80
2022-10-30T03:00:39.432Z,15.81
2022-10-30T03:01:39.514Z,15.73
2022-10-30T03:02:39.399Z,15.72
2022-10-30T03:03:39.346Z,15.83
2022-10-30T03:04:39.280Z,15.76
2022-10-30T03:05:39.214Z,15.73
2022-10-30T03:06:39.192Z,15.73
2022-10-30T03:07:39.143Z,15.76
2022-10-30T03:08:39.077Z,15.70
2022-10-30T03:09:39.071Z,15.69
2022-10-30T03:10:39.051Z,15.70
2022-10-30T03:11:38.944Z,15.70
2022-10-30T03:12:38.967Z,15.65
2022-10-30T03:13:38.927Z,15.66
2022-10-30T03:14:38.919Z,15.67
2022-10-30T03:15:38.833Z,15.65
2022-10-30T03:16:38.718Z,15.59
2022-10-30T03:17:38.795Z,15.62
2022-10-30T03:18:38.627Z,15.62
2022-10-30T03:19:38.620Z,15.60
2022-10-30T03:20:38.539Z,15.65
2022-10-30T03:21:38.497Z,15.65
2022-10-30T03:22:38.452Z,15.57
2022-10-30T03:23:38.424Z,15.62
2022-10-30T03:24:38.366Z,15.66
2022-10-30T03:25:38.317Z,15.54
2022-10-30T03:26:38.271Z,15.54
2022-10-30T03:27:38.238Z,15.48
2022-10-30T03:28:38.181Z,15.57
2022-10-30T03:29:38.150Z,15.52
2022-10-30T03:30:38.092Z,15.47
2022-10-30T03:31:38.052Z,15.54
2022-10-30T03:32:38.005Z,15.48
